Es ist keine erhöhte Aufmerksamkeit aufgrund des Wetters notwendig.    Es gibt keine Warnungen.
Webcam Vorhersage DWD Regenradar Wetterlage NRW Blitze Wind GFS-Modell
webcam


Kleve - Düffelward SSO more information Kleve - Düffelward SSO


Goch more information Goch


Weitere Templates dieser Seite und andere Webseiten:

Meteotemplate

Awekas - Template

weather34 - Template

Wetter im Erzgebirge


te
World Weather Websites
Bo-Rox Wetter Topsites List
 

METAR-Meldungen aus der Umgebung

   
EDLV - Goch
Aktualisierung: 20-07-2019 17:50
Teilweise bewölkt  
Teilweise bewölkt  
   Wind: OSO 11.1 km/h
Wind: OSO 11.1 km/h
Temperatur: 23°C
Taupunkt: 19°C
Luftfeuchte: 78%
Luftdruck: 1010 hPa
Bewölkt: Teilweise bewölkt
Sichtbarkeit: More than 10 km
Bewölkung: Teilweise bewölkt 1600 ft
EDLV 201550Z 12006KT 9999 SCT016CB 23/19 Q1010
EDLV - Emmerich
Aktualisierung: 20-07-2019 17:50
Teilweise bewölkt  
Teilweise bewölkt  
   Wind: OSO 11.1 km/h
Wind: OSO 11.1 km/h
Temperatur: 23°C
Taupunkt: 19°C
Luftfeuchte: 78%
Luftdruck: 1010 hPa
Bewölkt: Teilweise bewölkt
Sichtbarkeit: More than 10 km
Bewölkung: Teilweise bewölkt 1600 ft
EDLV 201550Z 12006KT 9999 SCT016CB 23/19 Q1010
EHDL - Nijmegen
Aktualisierung: 20-07-2019 17:55
Teilweise bewölkt  
Teilweise bewölkt  
   Wind: SSO 14.8 km/h
Wind: SSO 14.8 km/h
Temperatur: 24°C
Taupunkt: 17°C
Luftfeuchte: 65%
Luftdruck: 1010 hPa
Bewölkt: Teilweise bewölkt
Sichtbarkeit: More than 10 km
Bewölkung: Teilweise bewölkt 4400 ft
EHDL 201555Z AUTO 15008KT 110V200 9999 SCT044 24/17 Q1010 BLU
EHDL - Arnhem
Aktualisierung: 20-07-2019 17:55
Teilweise bewölkt  
Teilweise bewölkt  
   Wind: SSO 14.8 km/h
Wind: SSO 14.8 km/h
Temperatur: 24°C
Taupunkt: 17°C
Luftfeuchte: 65%
Luftdruck: 1010 hPa
Bewölkt: Teilweise bewölkt
Sichtbarkeit: More than 10 km
Bewölkung: Teilweise bewölkt 4400 ft
EHDL 201555Z AUTO 15008KT 110V200 9999 SCT044 24/17 Q1010 BLU
EDLV - Kalkar
Aktualisierung: 20-07-2019 17:50
Teilweise bewölkt  
Teilweise bewölkt  
   Wind: OSO 11.1 km/h
Wind: OSO 11.1 km/h
Temperatur: 23°C
Taupunkt: 19°C
Luftfeuchte: 78%
Luftdruck: 1010 hPa
Bewölkt: Teilweise bewölkt
Sichtbarkeit: More than 10 km
Bewölkung: Teilweise bewölkt 1600 ft
EDLV 201550Z 12006KT 9999 SCT016CB 23/19 Q1010
 

Script entwickelt von  Saratoga-weather.org Angepasst für das Template von  Weerstation Leuven

Sie finden Wetter-Infos dieser Station auch auf:

UK Metoffice

European Weather Network

WeatherCloud

Weather Underground

Germany Weather Network

AWEKAS

Neuwetter

Wettersektor

Von uns verwendete Ausrüstung:

Wetterstation
Davis Vantage Pro2

Wetterprogramm
Meteobridge

WetterComputer
Computer

Davis Vantage Pro2

Meteobridge

Computer